首页
METAR-TAF:

METAR-TAF

机场 :

扎達爾, 克罗地亚

纬度: 44-06N, 经度: 015-21E, 海拔: 82米

当前天气观测

该预报发布于38分钟前的05:30 UTC
风速4节,风向东转东南
温度 0°C
湿度 100%
气压 1028 hPa
能见度10公里或以上
1500米以下无云,无积雨云

METAR: LDZD 230530Z 12004KT CAVOK 00/00 Q1028 NOSIG

时间: 07:08 (06:08 UTC)

预报

该预报发布于43分钟前的05:25 UTC
预报有效从23日的 06点(UTC)到 24日的 06点(UTC)
风速2节,风向多变
能见度10公里或以上
1500米以下无云,无积雨云
成为
从 23日的 11点(UTC)到 23日的 13点(UTC)
风速9节,风向西
成为
从 23日的 16点(UTC)到 23日的 18点(UTC)
风速5节,风向东转东南
几率 30% :
短暂存在
从 24日的 03点(UTC)到 24日的 06点(UTC)
能見度: 3000
轻雾

TAF: LDZD 230525Z 2306/2406 VRB02KT CAVOK TX15/2313Z TN01/2306Z BECMG 2311/2313 27009KT BECMG 2316/2318 12005KT PROB30 TEMPO 2403/2406 3000 BR

超过4000个机场的气象观测和天气预报(METAR&TAF报告)。

可查询的气象台以黄色和红色小点在地图上表示。

将鼠标移到小点上方,可查看气象台名称。

然后点击查看天气观测和预报。

如需切换地图:点击带黑十字的绿色按钮放大地图;点击带横线的绿色按钮缩小地图;或者点击绿色箭头查看邻近地区的地图。


METAR-TAF: